sensor_id;sensor_type;location;lat;lon;timestamp;pressure;altitude;pressure_sealevel;temperature;humidity
22572;BME280;11452;53.368;14.658;2023-04-19T00:01:12;102318.76;;;6.66;62.28
22572;BME280;11452;53.368;14.658;2023-04-19T00:06:17;102328.08;;;6.64;62.60
22572;BME280;11452;53.368;14.658;2023-04-19T00:11:24;102325.92;;;6.59;62.50
22572;BME280;11452;53.368;14.658;2023-04-19T00:16:30;102326.47;;;6.51;62.65
22572;BME280;11452;53.368;14.658;2023-04-19T00:21:35;102322.42;;;6.55;63.10
22572;BME280;11452;53.368;14.658;2023-04-19T00:26:40;102318.42;;;6.57;63.34
22572;BME280;11452;53.368;14.658;2023-04-19T00:31:47;102315.30;;;6.59;63.74
22572;BME280;11452;53.368;14.658;2023-04-19T00:36:52;102302.82;;;6.66;63.84
22572;BME280;11452;53.368;14.658;2023-04-19T00:41:58;102297.06;;;6.66;64.21
22572;BME280;11452;53.368;14.658;2023-04-19T00:47:05;102288.08;;;6.73;64.29
22572;BME280;11452;53.368;14.658;2023-04-19T00:52:11;102282.82;;;6.69;64.62
22572;BME280;11452;53.368;14.658;2023-04-19T00:57:17;102270.06;;;6.65;65.13
22572;BME280;11452;53.368;14.658;2023-04-19T01:02:24;102261.55;;;6.70;65.25
22572;BME280;11452;53.368;14.658;2023-04-19T01:07:33;102255.38;;;6.68;65.76
22572;BME280;11452;53.368;14.658;2023-04-19T01:12:38;102256.25;;;6.69;65.92
22572;BME280;11452;53.368;14.658;2023-04-19T01:17:45;102245.23;;;6.68;66.15
22572;BME280;11452;53.368;14.658;2023-04-19T01:22:51;102248.36;;;6.66;66.55
22572;BME280;11452;53.368;14.658;2023-04-19T01:27:57;102239.94;;;6.66;67.16
22572;BME280;11452;53.368;14.658;2023-04-19T01:33:02;102233.38;;;6.60;67.85
22572;BME280;11452;53.368;14.658;2023-04-19T01:38:08;102227.59;;;6.62;68.04
22572;BME280;11452;53.368;14.658;2023-04-19T01:43:16;102226.20;;;6.67;68.27
22572;BME280;11452;53.368;14.658;2023-04-19T01:48:25;102209.76;;;6.69;68.64
22572;BME280;11452;53.368;14.658;2023-04-19T01:53:30;102204.19;;;6.58;69.28
22572;BME280;11452;53.368;14.658;2023-04-19T01:58:37;102196.92;;;6.68;69.33
22572;BME280;11452;53.368;14.658;2023-04-19T02:03:43;102206.70;;;6.68;69.44
22572;BME280;11452;53.368;14.658;2023-04-19T02:08:49;102195.72;;;6.62;69.86
22572;BME280;11452;53.368;14.658;2023-04-19T02:13:54;102180.77;;;6.55;70.42
22572;BME280;11452;53.368;14.658;2023-04-19T02:19:00;102174.05;;;6.61;70.33
22572;BME280;11452;53.368;14.658;2023-04-19T02:24:06;102181.20;;;6.56;70.64
22572;BME280;11452;53.368;14.658;2023-04-19T02:29:11;102171.41;;;6.59;70.51
22572;BME280;11452;53.368;14.658;2023-04-19T02:34:17;102177.66;;;6.55;70.87
22572;BME280;11452;53.368;14.658;2023-04-19T02:39:22;102168.39;;;6.54;70.78
22572;BME280;11452;53.368;14.658;2023-04-19T02:44:28;102164.95;;;6.49;71.06
22572;BME280;11452;53.368;14.658;2023-04-19T02:49:34;102162.23;;;6.52;70.91
22572;BME280;11452;53.368;14.658;2023-04-19T02:54:41;102155.13;;;6.52;71.08
22572;BME280;11452;53.368;14.658;2023-04-19T02:59:47;102152.95;;;6.50;71.26
22572;BME280;11452;53.368;14.658;2023-04-19T03:04:53;102142.88;;;6.45;71.27
22572;BME280;11452;53.368;14.658;2023-04-19T03:09:59;102135.92;;;6.37;71.54
22572;BME280;11452;53.368;14.658;2023-04-19T03:15:07;102129.13;;;6.47;71.54
22572;BME280;11452;53.368;14.658;2023-04-19T03:20:13;102121.75;;;6.38;71.73
22572;BME280;11452;53.368;14.658;2023-04-19T03:25:21;102120.83;;;6.40;71.79
22572;BME280;11452;53.368;14.658;2023-04-19T03:30:28;102102.33;;;6.34;72.05
22572;BME280;11452;53.368;14.658;2023-04-19T03:35:35;102099.58;;;6.40;72.06
22572;BME280;11452;53.368;14.658;2023-04-19T03:40:42;102095.72;;;6.33;72.17
22572;BME280;11452;53.368;14.658;2023-04-19T03:45:49;102091.76;;;6.31;72.34
22572;BME280;11452;53.368;14.658;2023-04-19T03:50:55;102090.55;;;6.25;72.59
22572;BME280;11452;53.368;14.658;2023-04-19T03:56:02;102087.45;;;6.25;72.63
22572;BME280;11452;53.368;14.658;2023-04-19T04:01:19;102081.31;;;6.22;73.08
22572;BME280;11452;53.368;14.658;2023-04-19T04:06:25;102078.63;;;6.23;73.25
22572;BME280;11452;53.368;14.658;2023-04-19T04:11:32;102070.59;;;6.28;73.42
22572;BME280;11452;53.368;14.658;2023-04-19T04:16:38;102071.45;;;6.30;73.46
22572;BME280;11452;53.368;14.658;2023-04-19T04:21:44;102058.09;;;6.33;73.84
22572;BME280;11452;53.368;14.658;2023-04-19T04:26:50;102059.28;;;6.42;73.86
22572;BME280;11452;53.368;14.658;2023-04-19T04:31:57;102051.28;;;6.44;74.29
22572;BME280;11452;53.368;14.658;2023-04-19T04:37:05;102057.34;;;6.50;74.31
22572;BME280;11452;53.368;14.658;2023-04-19T04:42:13;102047.09;;;6.54;74.54
22572;BME280;11452;53.368;14.658;2023-04-19T04:47:20;102048.64;;;6.68;74.38
22572;BME280;11452;53.368;14.658;2023-04-19T04:52:27;102043.41;;;6.63;74.44
22572;BME280;11452;53.368;14.658;2023-04-19T04:57:38;102046.19;;;6.79;74.47
22572;BME280;11452;53.368;14.658;2023-04-19T05:02:45;102045.73;;;6.80;74.40
22572;BME280;11452;53.368;14.658;2023-04-19T05:07:51;102037.25;;;6.83;74.27
22572;BME280;11452;53.368;14.658;2023-04-19T05:12:57;102033.66;;;6.86;74.09
22572;BME280;11452;53.368;14.658;2023-04-19T05:18:05;102022.92;;;6.90;74.08
22572;BME280;11452;53.368;14.658;2023-04-19T05:23:11;102021.87;;;6.99;74.20
22572;BME280;11452;53.368;14.658;2023-04-19T05:28:18;102018.48;;;7.12;73.76
22572;BME280;11452;53.368;14.658;2023-04-19T05:33:32;102014.89;;;7.14;73.61
22572;BME280;11452;53.368;14.658;2023-04-19T05:38:37;102019.45;;;7.28;73.34
22572;BME280;11452;53.368;14.658;2023-04-19T05:43:43;102020.59;;;7.38;73.21
22572;BME280;11452;53.368;14.658;2023-04-19T05:48:50;102013.09;;;7.36;72.34
22572;BME280;11452;53.368;14.658;2023-04-19T05:54:06;102004.38;;;7.48;72.18
22572;BME280;11452;53.368;14.658;2023-04-19T05:59:15;101995.52;;;7.48;71.75
22572;BME280;11452;53.368;14.658;2023-04-19T06:04:21;101990.42;;;7.58;71.51
22572;BME280;11452;53.368;14.658;2023-04-19T06:09:27;101994.53;;;7.71;71.47
22572;BME280;11452;53.368;14.658;2023-04-19T06:14:33;101998.56;;;7.87;70.98
22572;BME280;11452;53.368;14.658;2023-04-19T06:19:39;101990.61;;;7.86;69.35
22572;BME280;11452;53.368;14.658;2023-04-19T06:24:45;101993.16;;;7.90;69.40
22572;BME280;11452;53.368;14.658;2023-04-19T06:29:51;102005.24;;;8.04;69.10
22572;BME280;11452;53.368;14.658;2023-04-19T06:34:56;102000.13;;;7.96;68.60
22572;BME280;11452;53.368;14.658;2023-04-19T06:40:02;101983.55;;;8.19;68.97
22572;BME280;11452;53.368;14.658;2023-04-19T06:45:10;101981.56;;;8.27;68.03
22572;BME280;11452;53.368;14.658;2023-04-19T06:50:16;101991.94;;;9.16;66.24
22572;BME280;11452;53.368;14.658;2023-04-19T06:55:22;101981.39;;;8.82;66.21
22572;BME280;11452;53.368;14.658;2023-04-19T07:00:27;101977.06;;;8.78;65.90
22572;BME280;11452;53.368;14.658;2023-04-19T07:05:33;101966.73;;;8.82;65.71
22572;BME280;11452;53.368;14.658;2023-04-19T07:10:40;101971.28;;;8.93;65.30
22572;BME280;11452;53.368;14.658;2023-04-19T07:15:47;101957.77;;;9.14;64.82
22572;BME280;11452;53.368;14.658;2023-04-19T07:20:52;101954.16;;;9.44;64.73
22572;BME280;11452;53.368;14.658;2023-04-19T07:25:58;101954.03;;;9.47;63.33
22572;BME280;11452;53.368;14.658;2023-04-19T07:31:03;101951.69;;;9.51;63.84
22572;BME280;11452;53.368;14.658;2023-04-19T07:36:09;101946.11;;;9.72;62.95
22572;BME280;11452;53.368;14.658;2023-04-19T07:41:15;101944.17;;;9.64;61.83
22572;BME280;11452;53.368;14.658;2023-04-19T07:46:21;101940.67;;;9.62;61.23
22572;BME280;11452;53.368;14.658;2023-04-19T07:51:27;101931.37;;;9.60;60.64
22572;BME280;11452;53.368;14.658;2023-04-19T07:56:32;101933.80;;;9.81;60.65
22572;BME280;11452;53.368;14.658;2023-04-19T08:01:38;101931.37;;;10.00;60.41
22572;BME280;11452;53.368;14.658;2023-04-19T08:06:44;101935.56;;;10.07;59.76
22572;BME280;11452;53.368;14.658;2023-04-19T08:11:49;101933.14;;;10.26;59.44
22572;BME280;11452;53.368;14.658;2023-04-19T08:16:56;101931.58;;;10.68;59.37
22572;BME280;11452;53.368;14.658;2023-04-19T08:22:04;101925.17;;;10.61;58.33
22572;BME280;11452;53.368;14.658;2023-04-19T08:27:09;101923.83;;;10.96;59.03
22572;BME280;11452;53.368;14.658;2023-04-19T08:32:15;101909.45;;;11.32;58.04
22572;BME280;11452;53.368;14.658;2023-04-19T08:37:23;101912.48;;;11.34;56.06
22572;BME280;11452;53.368;14.658;2023-04-19T08:42:31;101912.63;;;11.31;55.06
22572;BME280;11452;53.368;14.658;2023-04-19T08:47:40;101899.72;;;11.31;54.73
22572;BME280;11452;53.368;14.658;2023-04-19T08:52:48;101894.95;;;11.59;54.79
22572;BME280;11452;53.368;14.658;2023-04-19T08:57:56;101890.87;;;11.71;54.42
22572;BME280;11452;53.368;14.658;2023-04-19T09:03:02;101890.81;;;11.72;53.89
22572;BME280;11452;53.368;14.658;2023-04-19T09:08:28;101882.83;;;11.93;53.98
22572;BME280;11452;53.368;14.658;2023-04-19T09:13:34;101882.65;;;11.75;52.26
22572;BME280;11452;53.368;14.658;2023-04-19T09:18:55;101862.75;;;11.61;53.00
22572;BME280;11452;53.368;14.658;2023-04-19T09:24:05;101865.11;;;11.36;52.05
22572;BME280;11452;53.368;14.658;2023-04-19T09:29:12;101861.60;;;11.56;52.43
22572;BME280;11452;53.368;14.658;2023-04-19T09:34:20;101852.98;;;11.60;52.34
22572;BME280;11452;53.368;14.658;2023-04-19T09:39:31;101847.80;;;11.97;52.92
22572;BME280;11452;53.368;14.658;2023-04-19T09:44:39;101828.02;;;12.20;51.72
22572;BME280;11452;53.368;14.658;2023-04-19T09:49:46;101833.45;;;12.19;50.68
22572;BME280;11452;53.368;14.658;2023-04-19T09:54:53;101822.92;;;12.24;51.16
22572;BME280;11452;53.368;14.658;2023-04-19T10:00:00;101822.59;;;12.11;50.30
22572;BME280;11452;53.368;14.658;2023-04-19T10:05:10;101814.97;;;11.92;50.29
22572;BME280;11452;53.368;14.658;2023-04-19T10:10:18;101814.70;;;11.88;50.24
22572;BME280;11452;53.368;14.658;2023-04-19T10:15:29;101815.72;;;12.25;50.30
22572;BME280;11452;53.368;14.658;2023-04-19T10:20:52;101801.09;;;12.42;50.42
22572;BME280;11452;53.368;14.658;2023-04-19T10:25:58;101796.62;;;12.70;49.55
22572;BME280;11452;53.368;14.658;2023-04-19T10:31:04;101792.53;;;12.53;49.02
22572;BME280;11452;53.368;14.658;2023-04-19T10:36:13;101771.67;;;12.40;48.39
22572;BME280;11452;53.368;14.658;2023-04-19T10:41:18;101776.02;;;12.43;48.57
22572;BME280;11452;53.368;14.658;2023-04-19T10:51:35;101788.09;;;12.14;47.03
22572;BME280;11452;53.368;14.658;2023-04-19T10:57:03;101760.08;;;12.11;47.11
22572;BME280;11452;53.368;14.658;2023-04-19T11:07:36;101750.77;;;12.09;46.53
22572;BME280;11452;53.368;14.658;2023-04-19T11:12:43;101739.11;;;12.48;47.20
22572;BME280;11452;53.368;14.658;2023-04-19T11:17:50;101730.52;;;12.50;46.52
22572;BME280;11452;53.368;14.658;2023-04-19T11:22:57;101735.00;;;12.41;46.02
22572;BME280;11452;53.368;14.658;2023-04-19T11:28:04;101723.81;;;12.41;46.95
22572;BME280;11452;53.368;14.658;2023-04-19T11:33:11;101709.21;;;12.47;46.50
22572;BME280;11452;53.368;14.658;2023-04-19T11:38:17;101707.55;;;12.44;46.54
22572;BME280;11452;53.368;14.658;2023-04-19T11:43:23;101707.70;;;12.69;47.24
22572;BME280;11452;53.368;14.658;2023-04-19T11:48:28;101698.01;;;12.83;47.05
22572;BME280;11452;53.368;14.658;2023-04-19T11:53:34;101680.27;;;13.07;46.73
22572;BME280;11452;53.368;14.658;2023-04-19T11:58:44;101660.41;;;12.49;46.04
22572;BME280;11452;53.368;14.658;2023-04-19T12:03:54;101691.13;;;12.61;46.52
22572;BME280;11452;53.368;14.658;2023-04-19T12:09:05;101681.52;;;12.74;46.22
22572;BME280;11452;53.368;14.658;2023-04-19T12:14:11;101673.70;;;12.69;46.83
22572;BME280;11452;53.368;14.658;2023-04-19T12:19:18;101676.12;;;13.27;46.37
22572;BME280;11452;53.368;14.658;2023-04-19T12:24:24;101682.33;;;12.93;46.26
22572;BME280;11452;53.368;14.658;2023-04-19T12:29:29;101670.87;;;12.90;46.07
22572;BME280;11452;53.368;14.658;2023-04-19T12:34:35;101667.78;;;12.71;45.92
22572;BME280;11452;53.368;14.658;2023-04-19T12:39:40;101671.78;;;12.54;45.89
22572;BME280;11452;53.368;14.658;2023-04-19T12:44:46;101671.92;;;12.51;45.80
22572;BME280;11452;53.368;14.658;2023-04-19T12:49:51;101668.73;;;12.34;45.88
22572;BME280;11452;53.368;14.658;2023-04-19T12:54:59;101670.00;;;12.44;45.92
22572;BME280;11452;53.368;14.658;2023-04-19T13:00:06;101658.69;;;12.65;46.30
22572;BME280;11452;53.368;14.658;2023-04-19T13:05:13;101650.33;;;12.54;45.39
22572;BME280;11452;53.368;14.658;2023-04-19T13:10:19;101653.28;;;12.12;46.11
22572;BME280;11452;53.368;14.658;2023-04-19T13:15:25;101644.29;;;11.86;46.38
22572;BME280;11452;53.368;14.658;2023-04-19T13:20:32;101639.70;;;11.88;46.87
22572;BME280;11452;53.368;14.658;2023-04-19T13:25:39;101622.73;;;11.50;47.91
22572;BME280;11452;53.368;14.658;2023-04-19T13:30:44;101626.75;;;11.50;48.59
22572;BME280;11452;53.368;14.658;2023-04-19T13:35:50;101613.09;;;11.45;49.22
22572;BME280;11452;53.368;14.658;2023-04-19T13:40:55;101617.52;;;11.36;49.52
22572;BME280;11452;53.368;14.658;2023-04-19T13:46:01;101599.85;;;11.32;50.02
22572;BME280;11452;53.368;14.658;2023-04-19T13:51:06;101622.31;;;11.09;50.88
22572;BME280;11452;53.368;14.658;2023-04-19T13:56:12;101601.98;;;10.85;52.03
22572;BME280;11452;53.368;14.658;2023-04-19T14:01:20;101604.72;;;10.84;52.58
22572;BME280;11452;53.368;14.658;2023-04-19T14:06:25;101590.14;;;10.81;53.01
22572;BME280;11452;53.368;14.658;2023-04-19T14:11:31;101596.36;;;10.71;53.24
22572;BME280;11452;53.368;14.658;2023-04-19T14:16:37;101598.61;;;10.50;54.09
22572;BME280;11452;53.368;14.658;2023-04-19T14:21:42;101593.17;;;10.41;54.47
22572;BME280;11452;53.368;14.658;2023-04-19T14:26:48;101584.64;;;10.21;55.50
22572;BME280;11452;53.368;14.658;2023-04-19T14:31:55;101585.20;;;10.29;56.69
22572;BME280;11452;53.368;14.658;2023-04-19T14:37:04;101586.84;;;10.00;57.50
22572;BME280;11452;53.368;14.658;2023-04-19T14:42:09;101578.75;;;9.68;59.16
22572;BME280;11452;53.368;14.658;2023-04-19T14:47:15;101590.84;;;9.55;60.25
22572;BME280;11452;53.368;14.658;2023-04-19T14:52:21;101580.48;;;9.69;60.62
22572;BME280;11452;53.368;14.658;2023-04-19T14:57:28;101585.60;;;9.75;60.98
22572;BME280;11452;53.368;14.658;2023-04-19T15:02:33;101580.16;;;9.55;61.43
22572;BME280;11452;53.368;14.658;2023-04-19T15:07:41;101570.95;;;9.40;61.79
22572;BME280;11452;53.368;14.658;2023-04-19T15:12:46;101571.29;;;9.08;63.09
22572;BME280;11452;53.368;14.658;2023-04-19T15:17:52;101585.91;;;8.96;63.84
22572;BME280;11452;53.368;14.658;2023-04-19T15:22:58;101585.45;;;8.96;64.13
22572;BME280;11452;53.368;14.658;2023-04-19T15:28:03;101590.94;;;9.05;64.48
22572;BME280;11452;53.368;14.658;2023-04-19T15:33:09;101577.55;;;8.82;65.62
22572;BME280;11452;53.368;14.658;2023-04-19T15:38:15;101586.00;;;8.81;65.98
22572;BME280;11452;53.368;14.658;2023-04-19T15:43:22;101590.26;;;8.87;66.15
22572;BME280;11452;53.368;14.658;2023-04-19T15:48:28;101582.16;;;8.90;66.50
22572;BME280;11452;53.368;14.658;2023-04-19T15:53:34;101593.90;;;8.84;67.21
22572;BME280;11452;53.368;14.658;2023-04-19T15:58:41;101591.54;;;8.88;67.29
22572;BME280;11452;53.368;14.658;2023-04-19T16:03:46;101596.51;;;8.73;68.20
22572;BME280;11452;53.368;14.658;2023-04-19T16:08:52;101592.29;;;8.67;68.18
22572;BME280;11452;53.368;14.658;2023-04-19T16:13:57;101598.95;;;8.67;68.92
22572;BME280;11452;53.368;14.658;2023-04-19T16:19:03;101603.02;;;8.77;69.33
22572;BME280;11452;53.368;14.658;2023-04-19T16:24:24;101602.94;;;8.92;69.26
22572;BME280;11452;53.368;14.658;2023-04-19T16:29:30;101600.00;;;8.88;69.45
22572;BME280;11452;53.368;14.658;2023-04-19T16:34:35;101605.43;;;8.85;69.81
22572;BME280;11452;53.368;14.658;2023-04-19T16:39:41;101603.38;;;8.80;69.92
22572;BME280;11452;53.368;14.658;2023-04-19T16:44:46;101606.09;;;8.78;70.40
22572;BME280;11452;53.368;14.658;2023-04-19T16:49:52;101611.02;;;8.77;70.42
22572;BME280;11452;53.368;14.658;2023-04-19T16:54:59;101622.21;;;8.62;70.84
22572;BME280;11452;53.368;14.658;2023-04-19T17:00:08;101619.64;;;8.59;71.18
22572;BME280;11452;53.368;14.658;2023-04-19T17:05:14;101613.34;;;8.61;71.28
22572;BME280;11452;53.368;14.658;2023-04-19T17:10:20;101613.20;;;8.66;71.27
22572;BME280;11452;53.368;14.658;2023-04-19T17:15:26;101608.78;;;8.65;71.17
22572;BME280;11452;53.368;14.658;2023-04-19T17:20:31;101613.37;;;8.73;70.94
22572;BME280;11452;53.368;14.658;2023-04-19T17:25:37;101615.02;;;8.77;71.14
22572;BME280;11452;53.368;14.658;2023-04-19T17:30:43;101623.94;;;8.89;71.00
22572;BME280;11452;53.368;14.658;2023-04-19T17:35:50;101633.01;;;8.84;70.73
22572;BME280;11452;53.368;14.658;2023-04-19T17:40:55;101636.19;;;8.82;70.80
22572;BME280;11452;53.368;14.658;2023-04-19T17:46:02;101642.18;;;8.75;71.01
22572;BME280;11452;53.368;14.658;2023-04-19T17:51:07;101643.75;;;8.94;71.22
22572;BME280;11452;53.368;14.658;2023-04-19T17:56:13;101646.41;;;8.94;70.70
22572;BME280;11452;53.368;14.658;2023-04-19T18:01:18;101652.00;;;8.99;70.84
22572;BME280;11452;53.368;14.658;2023-04-19T18:06:24;101654.06;;;9.05;70.78
22572;BME280;11452;53.368;14.658;2023-04-19T18:11:30;101665.91;;;9.09;70.61
22572;BME280;11452;53.368;14.658;2023-04-19T18:16:36;101656.13;;;9.21;70.50
22572;BME280;11452;53.368;14.658;2023-04-19T18:21:41;101661.97;;;9.19;70.38
22572;BME280;11452;53.368;14.658;2023-04-19T18:26:47;101664.69;;;9.18;70.13
22572;BME280;11452;53.368;14.658;2023-04-19T18:31:52;101659.97;;;9.13;70.28
22572;BME280;11452;53.368;14.658;2023-04-19T18:37:00;101669.72;;;9.14;70.48
22572;BME280;11452;53.368;14.658;2023-04-19T18:42:07;101678.23;;;9.12;70.67
22572;BME280;11452;53.368;14.658;2023-04-19T18:47:13;101667.80;;;9.06;70.98
22572;BME280;11452;53.368;14.658;2023-04-19T18:52:18;101669.16;;;9.17;71.20
22572;BME280;11452;53.368;14.658;2023-04-19T18:57:24;101666.74;;;9.10;71.39
22572;BME280;11452;53.368;14.658;2023-04-19T19:02:31;101668.48;;;9.11;71.46
22572;BME280;11452;53.368;14.658;2023-04-19T19:07:38;101664.33;;;9.15;71.88
22572;BME280;11452;53.368;14.658;2023-04-19T19:12:45;101671.82;;;9.17;72.26
22572;BME280;11452;53.368;14.658;2023-04-19T19:17:50;101678.59;;;9.14;71.94
22572;BME280;11452;53.368;14.658;2023-04-19T19:22:56;101681.41;;;9.10;72.30
22572;BME280;11452;53.368;14.658;2023-04-19T19:28:02;101687.87;;;9.16;72.58
22572;BME280;11452;53.368;14.658;2023-04-19T19:33:11;101682.59;;;9.14;72.52
22572;BME280;11452;53.368;14.658;2023-04-19T19:38:17;101684.13;;;9.21;72.99
22572;BME280;11452;53.368;14.658;2023-04-19T19:43:23;101672.89;;;9.25;72.94
22572;BME280;11452;53.368;14.658;2023-04-19T19:48:28;101671.51;;;9.26;73.12
22572;BME280;11452;53.368;14.658;2023-04-19T19:53:36;101681.53;;;9.31;73.13
22572;BME280;11452;53.368;14.658;2023-04-19T19:58:41;101689.56;;;9.18;72.89
22572;BME280;11452;53.368;14.658;2023-04-19T20:03:49;101706.31;;;9.35;73.50
22572;BME280;11452;53.368;14.658;2023-04-19T20:08:55;101703.95;;;9.39;73.18
22572;BME280;11452;53.368;14.658;2023-04-19T20:14:01;101714.87;;;9.45;73.37
22572;BME280;11452;53.368;14.658;2023-04-19T20:24:34;101711.03;;;9.52;73.13
22572;BME280;11452;53.368;14.658;2023-04-19T20:29:41;101714.52;;;9.54;72.95
22572;BME280;11452;53.368;14.658;2023-04-19T20:34:46;101717.81;;;9.49;72.81
22572;BME280;11452;53.368;14.658;2023-04-19T20:39:52;101710.52;;;9.54;72.74
22572;BME280;11452;53.368;14.658;2023-04-19T20:44:59;101704.83;;;9.51;72.82
22572;BME280;11452;53.368;14.658;2023-04-19T20:50:05;101638.02;;;9.18;73.21
22572;BME280;11452;53.368;14.658;2023-04-19T20:55:12;101698.81;;;9.46;72.97
22572;BME280;11452;53.368;14.658;2023-04-19T21:00:18;101706.11;;;9.53;73.49
22572;BME280;11452;53.368;14.658;2023-04-19T21:05:23;101706.86;;;9.45;73.20
22572;BME280;11452;53.368;14.658;2023-04-19T21:10:31;101709.95;;;9.46;73.56
22572;BME280;11452;53.368;14.658;2023-04-19T21:15:36;101698.97;;;9.42;73.65
22572;BME280;11452;53.368;14.658;2023-04-19T21:20:42;101701.38;;;9.36;74.04
22572;BME280;11452;53.368;14.658;2023-04-19T21:25:47;101717.13;;;9.30;74.14
22572;BME280;11452;53.368;14.658;2023-04-19T21:30:53;101719.12;;;9.25;74.33
22572;BME280;11452;53.368;14.658;2023-04-19T21:35:59;101713.11;;;9.19;74.63
22572;BME280;11452;53.368;14.658;2023-04-19T21:41:06;101717.98;;;9.19;74.65
22572;BME280;11452;53.368;14.658;2023-04-19T21:46:12;101706.74;;;9.10;74.33
22572;BME280;11452;53.368;14.658;2023-04-19T21:51:17;101694.92;;;9.05;74.76
22572;BME280;11452;53.368;14.658;2023-04-19T21:56:23;101699.11;;;9.12;75.12
22572;BME280;11452;53.368;14.658;2023-04-19T22:01:28;101701.55;;;9.07;74.82
22572;BME280;11452;53.368;14.658;2023-04-19T22:06:34;101699.34;;;9.06;75.41
22572;BME280;11452;53.368;14.658;2023-04-19T22:11:40;101694.74;;;9.10;75.23
22572;BME280;11452;53.368;14.658;2023-04-19T22:16:46;101686.88;;;9.07;74.98
22572;BME280;11452;53.368;14.658;2023-04-19T22:21:52;101686.11;;;9.03;75.22
22572;BME280;11452;53.368;14.658;2023-04-19T22:26:58;101679.85;;;9.04;75.23
22572;BME280;11452;53.368;14.658;2023-04-19T22:32:05;101671.55;;;9.00;75.21
22572;BME280;11452;53.368;14.658;2023-04-19T22:37:11;101672.52;;;8.97;75.74
22572;BME280;11452;53.368;14.658;2023-04-19T22:42:16;101666.63;;;9.01;75.55
22572;BME280;11452;53.368;14.658;2023-04-19T22:47:22;101667.23;;;8.96;75.96
22572;BME280;11452;53.368;14.658;2023-04-19T22:52:27;101673.72;;;8.89;76.03
22572;BME280;11452;53.368;14.658;2023-04-19T22:57:33;101681.77;;;8.87;76.28
22572;BME280;11452;53.368;14.658;2023-04-19T23:02:38;101674.13;;;8.90;76.63
22572;BME280;11452;53.368;14.658;2023-04-19T23:07:44;101675.03;;;9.02;77.25
22572;BME280;11452;53.368;14.658;2023-04-19T23:12:50;101677.95;;;9.08;76.89
22572;BME280;11452;53.368;14.658;2023-04-19T23:17:57;101670.11;;;9.03;76.94
22572;BME280;11452;53.368;14.658;2023-04-19T23:23:04;101673.02;;;8.95;76.76
22572;BME280;11452;53.368;14.658;2023-04-19T23:28:11;101668.52;;;8.97;77.20
22572;BME280;11452;53.368;14.658;2023-04-19T23:33:17;101665.48;;;8.95;77.00
22572;BME280;11452;53.368;14.658;2023-04-19T23:38:22;101666.20;;;9.00;77.43
22572;BME280;11452;53.368;14.658;2023-04-19T23:43:29;101658.57;;;9.02;77.32
22572;BME280;11452;53.368;14.658;2023-04-19T23:48:35;101648.36;;;9.02;77.46
22572;BME280;11452;53.368;14.658;2023-04-19T23:53:40;101637.45;;;8.96;77.27
22572;BME280;11452;53.368;14.658;2023-04-19T23:58:46;101633.59;;;8.92;77.34
